sensor_id;sensor_type;location;lat;lon;timestamp;P1;durP1;ratioP1;P2;durP2;ratioP2
37943;SDS011;23767;42.024;23.086;2023-05-29T00:02:17;6.68;;;2.47;;
37943;SDS011;23767;42.024;23.086;2023-05-29T00:04:43;6.05;;;2.53;;
37943;SDS011;23767;42.024;23.086;2023-05-29T00:07:09;4.70;;;2.42;;
37943;SDS011;23767;42.024;23.086;2023-05-29T00:09:35;4.50;;;2.65;;
37943;SDS011;23767;42.024;23.086;2023-05-29T00:12:01;5.90;;;2.95;;
37943;SDS011;23767;42.024;23.086;2023-05-29T00:14:27;5.70;;;2.88;;
37943;SDS011;23767;42.024;23.086;2023-05-29T00:16:53;6.00;;;2.70;;
37943;SDS011;23767;42.024;23.086;2023-05-29T00:19:19;6.18;;;2.60;;
37943;SDS011;23767;42.024;23.086;2023-05-29T00:21:46;4.18;;;2.40;;
37943;SDS011;23767;42.024;23.086;2023-05-29T00:24:14;4.57;;;2.90;;
37943;SDS011;23767;42.024;23.086;2023-05-29T00:26:40;5.32;;;2.55;;
37943;SDS011;23767;42.024;23.086;2023-05-29T00:29:06;6.07;;;3.00;;
37943;SDS011;23767;42.024;23.086;2023-05-29T00:31:32;7.43;;;2.70;;
37943;SDS011;23767;42.024;23.086;2023-05-29T00:33:59;7.80;;;3.30;;
37943;SDS011;23767;42.024;23.086;2023-05-29T00:36:25;5.05;;;2.90;;
37943;SDS011;23767;42.024;23.086;2023-05-29T00:38:51;7.07;;;3.20;;
37943;SDS011;23767;42.024;23.086;2023-05-29T00:41:17;7.15;;;3.10;;
37943;SDS011;23767;42.024;23.086;2023-05-29T00:43:43;5.80;;;3.08;;
37943;SDS011;23767;42.024;23.086;2023-05-29T00:46:09;4.50;;;2.65;;
37943;SDS011;23767;42.024;23.086;2023-05-29T00:48:38;6.43;;;3.10;;
37943;SDS011;23767;42.024;23.086;2023-05-29T00:51:06;6.53;;;2.92;;
37943;SDS011;23767;42.024;23.086;2023-05-29T00:53:32;5.22;;;2.65;;
37943;SDS011;23767;42.024;23.086;2023-05-29T00:55:58;6.28;;;2.67;;
37943;SDS011;23767;42.024;23.086;2023-05-29T00:58:25;5.90;;;3.17;;
37943;SDS011;23767;42.024;23.086;2023-05-29T01:00:51;5.13;;;2.90;;
37943;SDS011;23767;42.024;23.086;2023-05-29T01:03:18;4.97;;;2.78;;
37943;SDS011;23767;42.024;23.086;2023-05-29T01:05:44;6.35;;;2.63;;
37943;SDS011;23767;42.024;23.086;2023-05-29T01:08:11;5.40;;;3.17;;
37943;SDS011;23767;42.024;23.086;2023-05-29T01:10:38;5.57;;;2.80;;
37943;SDS011;23767;42.024;23.086;2023-05-29T01:13:06;7.15;;;3.15;;
37943;SDS011;23767;42.024;23.086;2023-05-29T01:15:58;5.90;;;2.97;;
37943;SDS011;23767;42.024;23.086;2023-05-29T01:28:51;6.70;;;2.90;;
37943;SDS011;23767;42.024;23.086;2023-05-29T01:31:23;5.82;;;3.15;;
37943;SDS011;23767;42.024;23.086;2023-05-29T01:33:57;5.53;;;2.78;;
37943;SDS011;23767;42.024;23.086;2023-05-29T01:36:23;5.35;;;3.08;;
37943;SDS011;23767;42.024;23.086;2023-05-29T01:38:53;7.50;;;3.28;;
37943;SDS011;23767;42.024;23.086;2023-05-29T01:41:19;6.03;;;3.30;;
37943;SDS011;23767;42.024;23.086;2023-05-29T01:43:46;5.72;;;2.75;;
37943;SDS011;23767;42.024;23.086;2023-05-29T01:46:13;7.72;;;3.13;;
37943;SDS011;23767;42.024;23.086;2023-05-29T01:48:42;4.97;;;2.60;;
37943;SDS011;23767;42.024;23.086;2023-05-29T01:51:09;4.70;;;2.53;;
37943;SDS011;23767;42.024;23.086;2023-05-29T01:53:39;5.88;;;2.50;;
37943;SDS011;23767;42.024;23.086;2023-05-29T01:56:05;5.38;;;2.83;;
37943;SDS011;23767;42.024;23.086;2023-05-29T01:58:32;5.75;;;2.70;;
37943;SDS011;23767;42.024;23.086;2023-05-29T02:00:58;5.95;;;3.00;;
37943;SDS011;23767;42.024;23.086;2023-05-29T02:03:25;5.20;;;2.70;;
37943;SDS011;23767;42.024;23.086;2023-05-29T02:05:54;5.90;;;2.90;;
37943;SDS011;23767;42.024;23.086;2023-05-29T02:08:20;5.38;;;2.85;;
37943;SDS011;23767;42.024;23.086;2023-05-29T02:10:47;5.05;;;2.97;;
37943;SDS011;23767;42.024;23.086;2023-05-29T02:13:12;5.82;;;3.00;;
37943;SDS011;23767;42.024;23.086;2023-05-29T02:15:38;4.88;;;3.17;;
37943;SDS011;23767;42.024;23.086;2023-05-29T02:18:05;5.93;;;3.17;;
37943;SDS011;23767;42.024;23.086;2023-05-29T02:20:32;5.95;;;2.80;;
37943;SDS011;23767;42.024;23.086;2023-05-29T02:22:58;4.55;;;2.60;;
37943;SDS011;23767;42.024;23.086;2023-05-29T02:25:24;5.95;;;3.00;;
37943;SDS011;23767;42.024;23.086;2023-05-29T02:27:50;4.75;;;2.55;;
37943;SDS011;23767;42.024;23.086;2023-05-29T02:30:16;4.97;;;3.10;;
37943;SDS011;23767;42.024;23.086;2023-05-29T02:32:42;6.95;;;3.30;;
37943;SDS011;23767;42.024;23.086;2023-05-29T02:35:08;6.80;;;3.25;;
37943;SDS011;23767;42.024;23.086;2023-05-29T02:37:35;5.72;;;3.22;;
37943;SDS011;23767;42.024;23.086;2023-05-29T02:40:01;6.82;;;3.10;;
37943;SDS011;23767;42.024;23.086;2023-05-29T02:42:27;5.68;;;2.83;;
37943;SDS011;23767;42.024;23.086;2023-05-29T02:44:53;6.57;;;3.75;;
37943;SDS011;23767;42.024;23.086;2023-05-29T02:47:19;5.82;;;2.80;;
37943;SDS011;23767;42.024;23.086;2023-05-29T02:49:45;5.55;;;3.20;;
37943;SDS011;23767;42.024;23.086;2023-05-29T02:52:11;6.00;;;3.00;;
37943;SDS011;23767;42.024;23.086;2023-05-29T02:54:37;6.45;;;3.70;;
37943;SDS011;23767;42.024;23.086;2023-05-29T02:57:03;4.88;;;3.00;;
37943;SDS011;23767;42.024;23.086;2023-05-29T02:59:29;8.80;;;3.53;;
37943;SDS011;23767;42.024;23.086;2023-05-29T03:01:57;6.80;;;3.40;;
37943;SDS011;23767;42.024;23.086;2023-05-29T03:04:23;6.10;;;3.33;;
37943;SDS011;23767;42.024;23.086;2023-05-29T03:06:49;6.13;;;3.45;;
37943;SDS011;23767;42.024;23.086;2023-05-29T03:09:17;6.57;;;3.15;;
37943;SDS011;23767;42.024;23.086;2023-05-29T03:11:43;5.03;;;2.95;;
37943;SDS011;23767;42.024;23.086;2023-05-29T03:14:10;8.95;;;3.65;;
37943;SDS011;23767;42.024;23.086;2023-05-29T03:16:36;5.95;;;3.50;;
37943;SDS011;23767;42.024;23.086;2023-05-29T03:19:03;8.20;;;3.03;;
37943;SDS011;23767;42.024;23.086;2023-05-29T03:21:29;7.18;;;3.70;;
37943;SDS011;23767;42.024;23.086;2023-05-29T03:23:56;6.80;;;3.50;;
37943;SDS011;23767;42.024;23.086;2023-05-29T03:26:22;5.85;;;3.35;;
37943;SDS011;23767;42.024;23.086;2023-05-29T03:28:48;5.10;;;3.47;;
37943;SDS011;23767;42.024;23.086;2023-05-29T03:31:14;5.32;;;3.28;;
37943;SDS011;23767;42.024;23.086;2023-05-29T03:33:40;6.47;;;3.30;;
37943;SDS011;23767;42.024;23.086;2023-05-29T03:36:06;5.28;;;3.05;;
37943;SDS011;23767;42.024;23.086;2023-05-29T03:38:32;6.55;;;3.10;;
37943;SDS011;23767;42.024;23.086;2023-05-29T03:40:58;5.95;;;3.20;;
37943;SDS011;23767;42.024;23.086;2023-05-29T03:43:24;6.53;;;2.90;;
37943;SDS011;23767;42.024;23.086;2023-05-29T03:45:50;6.00;;;2.58;;
37943;SDS011;23767;42.024;23.086;2023-05-29T03:48:16;6.90;;;3.28;;
37943;SDS011;23767;42.024;23.086;2023-05-29T03:50:44;7.47;;;3.53;;
37943;SDS011;23767;42.024;23.086;2023-05-29T03:53:10;5.38;;;3.00;;
37943;SDS011;23767;42.024;23.086;2023-05-29T03:55:36;6.53;;;2.90;;
37943;SDS011;23767;42.024;23.086;2023-05-29T03:58:02;5.32;;;2.92;;
37943;SDS011;23767;42.024;23.086;2023-05-29T04:00:28;6.22;;;2.63;;
37943;SDS011;23767;42.024;23.086;2023-05-29T04:02:55;6.90;;;3.10;;
37943;SDS011;23767;42.024;23.086;2023-05-29T04:05:21;6.22;;;2.92;;
37943;SDS011;23767;42.024;23.086;2023-05-29T04:07:47;5.25;;;2.78;;
37943;SDS011;23767;42.024;23.086;2023-05-29T04:10:13;8.60;;;2.70;;
37943;SDS011;23767;42.024;23.086;2023-05-29T04:12:39;5.30;;;3.20;;
37943;SDS011;23767;42.024;23.086;2023-05-29T04:15:05;7.88;;;3.17;;
37943;SDS011;23767;42.024;23.086;2023-05-29T04:17:31;6.53;;;2.58;;
37943;SDS011;23767;42.024;23.086;2023-05-29T04:19:57;7.35;;;2.38;;
37943;SDS011;23767;42.024;23.086;2023-05-29T04:22:24;5.18;;;3.03;;
37943;SDS011;23767;42.024;23.086;2023-05-29T04:24:50;8.93;;;3.17;;
37943;SDS011;23767;42.024;23.086;2023-05-29T04:27:16;5.93;;;2.65;;
37943;SDS011;23767;42.024;23.086;2023-05-29T04:29:43;6.95;;;2.80;;
37943;SDS011;23767;42.024;23.086;2023-05-29T04:32:09;7.20;;;2.95;;
37943;SDS011;23767;42.024;23.086;2023-05-29T04:34:39;4.95;;;3.03;;
37943;SDS011;23767;42.024;23.086;2023-05-29T04:37:05;7.00;;;3.17;;
37943;SDS011;23767;42.024;23.086;2023-05-29T04:39:31;9.07;;;4.50;;
37943;SDS011;23767;42.024;23.086;2023-05-29T04:41:57;8.32;;;3.92;;
37943;SDS011;23767;42.024;23.086;2023-05-29T04:44:24;9.77;;;4.78;;
37943;SDS011;23767;42.024;23.086;2023-05-29T04:46:56;13.10;;;4.85;;
37943;SDS011;23767;42.024;23.086;2023-05-29T04:49:22;10.45;;;4.30;;
37943;SDS011;23767;42.024;23.086;2023-05-29T04:51:49;8.55;;;4.30;;
37943;SDS011;23767;42.024;23.086;2023-05-29T04:54:17;8.90;;;4.20;;
37943;SDS011;23767;42.024;23.086;2023-05-29T04:56:44;9.90;;;4.20;;
37943;SDS011;23767;42.024;23.086;2023-05-29T04:59:11;6.80;;;4.20;;
37943;SDS011;23767;42.024;23.086;2023-05-29T05:01:37;10.93;;;4.57;;
37943;SDS011;23767;42.024;23.086;2023-05-29T05:04:04;7.65;;;4.47;;
37943;SDS011;23767;42.024;23.086;2023-05-29T05:06:30;8.80;;;4.35;;
37943;SDS011;23767;42.024;23.086;2023-05-29T05:08:56;7.20;;;4.05;;
37943;SDS011;23767;42.024;23.086;2023-05-29T05:11:23;7.32;;;4.05;;
37943;SDS011;23767;42.024;23.086;2023-05-29T05:13:50;12.10;;;5.05;;
37943;SDS011;23767;42.024;23.086;2023-05-29T05:16:16;8.75;;;4.40;;
37943;SDS011;23767;42.024;23.086;2023-05-29T05:18:43;12.43;;;4.65;;
37943;SDS011;23767;42.024;23.086;2023-05-29T05:21:09;11.13;;;4.68;;
37943;SDS011;23767;42.024;23.086;2023-05-29T05:23:35;13.93;;;5.00;;
37943;SDS011;23767;42.024;23.086;2023-05-29T05:26:02;8.80;;;4.20;;
37943;SDS011;23767;42.024;23.086;2023-05-29T05:28:28;8.80;;;4.53;;
37943;SDS011;23767;42.024;23.086;2023-05-29T05:30:54;11.05;;;4.20;;
37943;SDS011;23767;42.024;23.086;2023-05-29T05:33:20;9.05;;;4.55;;
37943;SDS011;23767;42.024;23.086;2023-05-29T05:35:46;7.88;;;4.95;;
37943;SDS011;23767;42.024;23.086;2023-05-29T05:38:12;11.98;;;4.50;;
37943;SDS011;23767;42.024;23.086;2023-05-29T05:40:38;7.15;;;4.40;;
37943;SDS011;23767;42.024;23.086;2023-05-29T05:43:04;8.32;;;4.70;;
37943;SDS011;23767;42.024;23.086;2023-05-29T05:45:31;9.30;;;4.22;;
37943;SDS011;23767;42.024;23.086;2023-05-29T05:47:57;10.75;;;4.47;;
37943;SDS011;23767;42.024;23.086;2023-05-29T05:50:23;9.20;;;4.15;;
37943;SDS011;23767;42.024;23.086;2023-05-29T05:52:50;9.02;;;4.10;;
37943;SDS011;23767;42.024;23.086;2023-05-29T05:55:16;8.50;;;3.50;;
37943;SDS011;23767;42.024;23.086;2023-05-29T05:57:42;10.27;;;4.30;;
37943;SDS011;23767;42.024;23.086;2023-05-29T06:00:08;11.82;;;4.03;;
37943;SDS011;23767;42.024;23.086;2023-05-29T06:02:38;9.15;;;3.72;;
37943;SDS011;23767;42.024;23.086;2023-05-29T06:05:09;9.65;;;3.67;;
37943;SDS011;23767;42.024;23.086;2023-05-29T06:07:36;7.47;;;4.07;;
37943;SDS011;23767;42.024;23.086;2023-05-29T06:10:02;6.75;;;3.50;;
37943;SDS011;23767;42.024;23.086;2023-05-29T06:12:28;8.73;;;4.15;;
37943;SDS011;23767;42.024;23.086;2023-05-29T06:14:55;8.98;;;3.80;;
37943;SDS011;23767;42.024;23.086;2023-05-29T06:17:22;11.07;;;4.28;;
37943;SDS011;23767;42.024;23.086;2023-05-29T06:19:48;11.07;;;4.30;;
37943;SDS011;23767;42.024;23.086;2023-05-29T06:22:14;17.90;;;6.00;;
37943;SDS011;23767;42.024;23.086;2023-05-29T06:24:41;14.95;;;6.07;;
37943;SDS011;23767;42.024;23.086;2023-05-29T06:27:07;17.98;;;6.10;;
37943;SDS011;23767;42.024;23.086;2023-05-29T06:29:33;14.77;;;5.35;;
37943;SDS011;23767;42.024;23.086;2023-05-29T06:31:59;13.05;;;5.38;;
37943;SDS011;23767;42.024;23.086;2023-05-29T06:34:26;15.02;;;5.75;;
37943;SDS011;23767;42.024;23.086;2023-05-29T06:36:52;14.45;;;4.80;;
37943;SDS011;23767;42.024;23.086;2023-05-29T06:39:18;13.88;;;5.88;;
37943;SDS011;23767;42.024;23.086;2023-05-29T06:41:45;14.60;;;5.63;;
37943;SDS011;23767;42.024;23.086;2023-05-29T06:44:11;7.78;;;4.82;;
37943;SDS011;23767;42.024;23.086;2023-05-29T06:46:37;10.27;;;5.25;;
37943;SDS011;23767;42.024;23.086;2023-05-29T06:49:03;11.20;;;4.53;;
37943;SDS011;23767;42.024;23.086;2023-05-29T06:51:29;15.18;;;4.65;;
37943;SDS011;23767;42.024;23.086;2023-05-29T06:53:57;15.15;;;4.68;;
37943;SDS011;23767;42.024;23.086;2023-05-29T06:56:23;9.15;;;4.38;;
37943;SDS011;23767;42.024;23.086;2023-05-29T06:58:50;12.18;;;4.28;;
37943;SDS011;23767;42.024;23.086;2023-05-29T07:01:16;10.93;;;4.20;;
37943;SDS011;23767;42.024;23.086;2023-05-29T07:03:43;9.32;;;4.10;;
37943;SDS011;23767;42.024;23.086;2023-05-29T07:06:09;8.68;;;4.28;;
37943;SDS011;23767;42.024;23.086;2023-05-29T07:08:35;9.98;;;4.43;;
37943;SDS011;23767;42.024;23.086;2023-05-29T07:11:01;9.10;;;4.50;;
37943;SDS011;23767;42.024;23.086;2023-05-29T07:13:27;12.07;;;3.90;;
37943;SDS011;23767;42.024;23.086;2023-05-29T07:15:53;9.98;;;4.60;;
37943;SDS011;23767;42.024;23.086;2023-05-29T07:18:19;7.82;;;4.35;;
37943;SDS011;23767;42.024;23.086;2023-05-29T07:20:45;8.57;;;3.92;;
37943;SDS011;23767;42.024;23.086;2023-05-29T07:23:11;8.38;;;4.13;;
37943;SDS011;23767;42.024;23.086;2023-05-29T07:25:37;6.20;;;3.83;;
37943;SDS011;23767;42.024;23.086;2023-05-29T07:28:04;8.52;;;4.20;;
37943;SDS011;23767;42.024;23.086;2023-05-29T07:30:30;11.25;;;4.00;;
37943;SDS011;23767;42.024;23.086;2023-05-29T07:32:56;9.18;;;3.95;;
37943;SDS011;23767;42.024;23.086;2023-05-29T07:35:22;10.95;;;4.00;;
37943;SDS011;23767;42.024;23.086;2023-05-29T07:37:48;11.07;;;4.25;;
37943;SDS011;23767;42.024;23.086;2023-05-29T07:40:16;10.57;;;4.15;;
37943;SDS011;23767;42.024;23.086;2023-05-29T07:42:42;6.85;;;3.55;;
37943;SDS011;23767;42.024;23.086;2023-05-29T07:45:08;6.57;;;3.50;;
37943;SDS011;23767;42.024;23.086;2023-05-29T07:47:36;10.38;;;3.55;;
37943;SDS011;23767;42.024;23.086;2023-05-29T07:50:02;8.45;;;3.63;;
37943;SDS011;23767;42.024;23.086;2023-05-29T07:52:28;12.20;;;3.72;;
37943;SDS011;23767;42.024;23.086;2023-05-29T07:54:54;7.93;;;3.83;;
37943;SDS011;23767;42.024;23.086;2023-05-29T07:57:20;11.15;;;3.55;;
37943;SDS011;23767;42.024;23.086;2023-05-29T07:59:46;7.63;;;3.58;;
37943;SDS011;23767;42.024;23.086;2023-05-29T08:02:14;9.65;;;3.85;;
37943;SDS011;23767;42.024;23.086;2023-05-29T08:04:41;8.57;;;3.50;;
37943;SDS011;23767;42.024;23.086;2023-05-29T08:07:07;10.48;;;3.10;;
37943;SDS011;23767;42.024;23.086;2023-05-29T08:09:34;8.77;;;3.40;;
37943;SDS011;23767;42.024;23.086;2023-05-29T08:12:00;8.63;;;3.38;;
37943;SDS011;23767;42.024;23.086;2023-05-29T08:14:27;5.32;;;3.10;;
37943;SDS011;23767;42.024;23.086;2023-05-29T08:16:53;8.38;;;3.55;;
37943;SDS011;23767;42.024;23.086;2023-05-29T08:19:19;9.13;;;4.03;;
37943;SDS011;23767;42.024;23.086;2023-05-29T08:21:45;6.72;;;2.90;;
37943;SDS011;23767;42.024;23.086;2023-05-29T08:24:11;7.40;;;3.10;;
37943;SDS011;23767;42.024;23.086;2023-05-29T08:26:37;6.60;;;3.35;;
37943;SDS011;23767;42.024;23.086;2023-05-29T08:29:03;5.40;;;2.97;;
37943;SDS011;23767;42.024;23.086;2023-05-29T08:31:30;8.32;;;2.85;;
37943;SDS011;23767;42.024;23.086;2023-05-29T08:33:56;7.15;;;3.30;;
37943;SDS011;23767;42.024;23.086;2023-05-29T08:36:22;6.55;;;2.90;;
37943;SDS011;23767;42.024;23.086;2023-05-29T08:38:49;6.55;;;3.10;;
37943;SDS011;23767;42.024;23.086;2023-05-29T08:41:23;6.70;;;3.30;;
37943;SDS011;23767;42.024;23.086;2023-05-29T08:43:51;5.80;;;2.88;;
37943;SDS011;23767;42.024;23.086;2023-05-29T08:46:18;6.68;;;2.78;;
37943;SDS011;23767;42.024;23.086;2023-05-29T08:48:48;7.10;;;3.05;;
37943;SDS011;23767;42.024;23.086;2023-05-29T08:51:15;6.72;;;2.97;;
37943;SDS011;23767;42.024;23.086;2023-05-29T08:53:42;5.45;;;2.65;;
37943;SDS011;23767;42.024;23.086;2023-05-29T08:56:08;7.68;;;3.00;;
37943;SDS011;23767;42.024;23.086;2023-05-29T08:58:34;6.07;;;2.78;;
37943;SDS011;23767;42.024;23.086;2023-05-29T09:01:00;6.93;;;3.03;;
37943;SDS011;23767;42.024;23.086;2023-05-29T09:03:27;8.90;;;2.92;;
37943;SDS011;23767;42.024;23.086;2023-05-29T09:05:57;6.93;;;3.22;;
37943;SDS011;23767;42.024;23.086;2023-05-29T09:08:24;6.30;;;3.53;;
37943;SDS011;23767;42.024;23.086;2023-05-29T09:10:51;6.05;;;3.17;;
37943;SDS011;23767;42.024;23.086;2023-05-29T09:13:17;5.70;;;3.20;;
37943;SDS011;23767;42.024;23.086;2023-05-29T09:15:43;12.10;;;3.40;;
37943;SDS011;23767;42.024;23.086;2023-05-29T09:18:10;10.60;;;3.38;;
37943;SDS011;23767;42.024;23.086;2023-05-29T09:20:36;7.88;;;3.20;;
37943;SDS011;23767;42.024;23.086;2023-05-29T09:23:03;7.65;;;3.30;;
37943;SDS011;23767;42.024;23.086;2023-05-29T09:25:31;6.88;;;3.20;;
37943;SDS011;23767;42.024;23.086;2023-05-29T09:28:01;6.97;;;2.92;;
37943;SDS011;23767;42.024;23.086;2023-05-29T09:33:03;6.38;;;2.65;;
37943;SDS011;23767;42.024;23.086;2023-05-29T09:37:59;8.98;;;2.90;;
37943;SDS011;23767;42.024;23.086;2023-05-29T09:40:26;6.13;;;2.70;;
37943;SDS011;23767;42.024;23.086;2023-05-29T09:42:52;5.70;;;3.13;;
37943;SDS011;23767;42.024;23.086;2023-05-29T09:45:18;6.28;;;2.90;;
37943;SDS011;23767;42.024;23.086;2023-05-29T09:47:44;5.10;;;2.50;;
37943;SDS011;23767;42.024;23.086;2023-05-29T09:50:19;6.47;;;2.75;;
37943;SDS011;23767;42.024;23.086;2023-05-29T09:52:46;4.72;;;2.50;;
37943;SDS011;23767;42.024;23.086;2023-05-29T09:55:13;6.35;;;2.30;;
37943;SDS011;23767;42.024;23.086;2023-05-29T09:57:43;5.10;;;2.43;;
37943;SDS011;23767;42.024;23.086;2023-05-29T10:00:10;5.43;;;2.08;;
37943;SDS011;23767;42.024;23.086;2023-05-29T10:02:38;5.55;;;2.30;;
37943;SDS011;23767;42.024;23.086;2023-05-29T10:05:05;8.95;;;3.13;;
37943;SDS011;23767;42.024;23.086;2023-05-29T10:07:36;7.03;;;2.30;;
37943;SDS011;23767;42.024;23.086;2023-05-29T10:10:03;6.13;;;2.88;;
37943;SDS011;23767;42.024;23.086;2023-05-29T10:12:41;5.70;;;2.58;;
37943;SDS011;23767;42.024;23.086;2023-05-29T10:15:13;7.05;;;2.50;;
37943;SDS011;23767;42.024;23.086;2023-05-29T10:17:44;7.07;;;2.75;;
37943;SDS011;23767;42.024;23.086;2023-05-29T10:22:40;6.53;;;2.63;;
37943;SDS011;23767;42.024;23.086;2023-05-29T10:25:08;5.95;;;2.58;;
37943;SDS011;23767;42.024;23.086;2023-05-29T10:27:35;7.07;;;2.80;;
37943;SDS011;23767;42.024;23.086;2023-05-29T10:30:04;4.70;;;2.30;;
37943;SDS011;23767;42.024;23.086;2023-05-29T10:33:00;5.97;;;2.58;;
37943;SDS011;23767;42.024;23.086;2023-05-29T10:38:11;6.25;;;2.28;;
37943;SDS011;23767;42.024;23.086;2023-05-29T10:40:38;7.38;;;2.38;;
37943;SDS011;23767;42.024;23.086;2023-05-29T10:43:04;7.60;;;2.50;;
37943;SDS011;23767;42.024;23.086;2023-05-29T10:50:42;5.15;;;2.50;;
37943;SDS011;23767;42.024;23.086;2023-05-29T10:53:08;5.47;;;2.53;;
37943;SDS011;23767;42.024;23.086;2023-05-29T10:55:35;5.75;;;2.78;;
37943;SDS011;23767;42.024;23.086;2023-05-29T10:58:08;4.85;;;2.15;;
37943;SDS011;23767;42.024;23.086;2023-05-29T11:00:39;6.10;;;2.53;;
37943;SDS011;23767;42.024;23.086;2023-05-29T11:03:08;4.80;;;2.40;;
37943;SDS011;23767;42.024;23.086;2023-05-29T11:05:35;4.80;;;2.45;;
37943;SDS011;23767;42.024;23.086;2023-05-29T11:08:28;5.10;;;2.47;;
37943;SDS011;23767;42.024;23.086;2023-05-29T11:10:56;5.72;;;2.30;;
37943;SDS011;23767;42.024;23.086;2023-05-29T11:13:23;4.88;;;2.70;;
37943;SDS011;23767;42.024;23.086;2023-05-29T11:18:38;6.20;;;2.30;;
37943;SDS011;23767;42.024;23.086;2023-05-29T11:21:04;6.60;;;2.42;;
37943;SDS011;23767;42.024;23.086;2023-05-29T11:23:35;4.78;;;2.30;;
37943;SDS011;23767;42.024;23.086;2023-05-29T11:26:03;6.25;;;2.30;;
37943;SDS011;23767;42.024;23.086;2023-05-29T11:28:30;4.72;;;2.38;;
37943;SDS011;23767;42.024;23.086;2023-05-29T11:30:57;4.50;;;2.08;;
37943;SDS011;23767;42.024;23.086;2023-05-29T11:33:26;5.45;;;2.30;;
37943;SDS011;23767;42.024;23.086;2023-05-29T11:35:58;4.68;;;2.17;;
37943;SDS011;23767;42.024;23.086;2023-05-29T11:38:27;6.50;;;2.67;;
37943;SDS011;23767;42.024;23.086;2023-05-29T11:40:54;7.25;;;2.40;;
37943;SDS011;23767;42.024;23.086;2023-05-29T11:43:21;5.10;;;2.17;;
37943;SDS011;23767;42.024;23.086;2023-05-29T11:45:47;6.97;;;2.13;;
37943;SDS011;23767;42.024;23.086;2023-05-29T11:48:13;5.82;;;2.30;;
37943;SDS011;23767;42.024;23.086;2023-05-29T11:50:39;6.35;;;2.42;;
37943;SDS011;23767;42.024;23.086;2023-05-29T11:53:06;3.58;;;1.80;;
37943;SDS011;23767;42.024;23.086;2023-05-29T11:55:33;4.55;;;2.15;;
37943;SDS011;23767;42.024;23.086;2023-05-29T11:58:00;5.32;;;2.30;;
37943;SDS011;23767;42.024;23.086;2023-05-29T12:00:27;4.13;;;2.00;;
37943;SDS011;23767;42.024;23.086;2023-05-29T12:02:57;4.60;;;1.83;;
37943;SDS011;23767;42.024;23.086;2023-05-29T12:05:24;5.25;;;1.98;;
37943;SDS011;23767;42.024;23.086;2023-05-29T12:07:51;4.07;;;1.80;;
37943;SDS011;23767;42.024;23.086;2023-05-29T12:10:18;4.70;;;2.00;;
37943;SDS011;23767;42.024;23.086;2023-05-29T12:12:55;3.90;;;1.73;;
37943;SDS011;23767;42.024;23.086;2023-05-29T12:15:21;4.95;;;1.98;;
37943;SDS011;23767;42.024;23.086;2023-05-29T12:17:50;4.30;;;1.80;;
37943;SDS011;23767;42.024;23.086;2023-05-29T12:20:17;5.05;;;1.90;;
37943;SDS011;23767;42.024;23.086;2023-05-29T12:22:44;5.50;;;1.83;;
37943;SDS011;23767;42.024;23.086;2023-05-29T12:25:10;7.85;;;1.90;;
37943;SDS011;23767;42.024;23.086;2023-05-29T12:27:37;4.78;;;1.80;;
37943;SDS011;23767;42.024;23.086;2023-05-29T12:30:10;4.43;;;1.55;;
37943;SDS011;23767;42.024;23.086;2023-05-29T12:32:39;3.08;;;1.45;;
37943;SDS011;23767;42.024;23.086;2023-05-29T12:35:27;5.03;;;1.80;;
37943;SDS011;23767;42.024;23.086;2023-05-29T12:37:59;3.03;;;1.58;;
37943;SDS011;23767;42.024;23.086;2023-05-29T12:40:25;4.05;;;1.85;;
37943;SDS011;23767;42.024;23.086;2023-05-29T12:42:55;4.15;;;1.80;;
37943;SDS011;23767;42.024;23.086;2023-05-29T12:45:25;5.95;;;2.10;;
37943;SDS011;23767;42.024;23.086;2023-05-29T12:47:55;4.43;;;2.00;;
37943;SDS011;23767;42.024;23.086;2023-05-29T12:50:23;5.35;;;2.00;;
37943;SDS011;23767;42.024;23.086;2023-05-29T12:52:53;4.22;;;1.83;;
37943;SDS011;23767;42.024;23.086;2023-05-29T12:55:19;6.90;;;2.30;;
37943;SDS011;23767;42.024;23.086;2023-05-29T12:57:45;3.97;;;2.00;;
37943;SDS011;23767;42.024;23.086;2023-05-29T13:00:12;4.10;;;1.90;;
37943;SDS011;23767;42.024;23.086;2023-05-29T13:02:38;5.97;;;2.17;;
37943;SDS011;23767;42.024;23.086;2023-05-29T13:05:05;4.68;;;2.30;;
37943;SDS011;23767;42.024;23.086;2023-05-29T13:07:32;5.57;;;2.03;;
37943;SDS011;23767;42.024;23.086;2023-05-29T13:09:59;4.75;;;2.15;;
37943;SDS011;23767;42.024;23.086;2023-05-29T13:12:26;5.18;;;2.08;;
37943;SDS011;23767;42.024;23.086;2023-05-29T13:14:53;4.90;;;1.98;;
37943;SDS011;23767;42.024;23.086;2023-05-29T13:17:21;4.72;;;2.15;;
37943;SDS011;23767;42.024;23.086;2023-05-29T13:19:47;4.05;;;1.73;;
37943;SDS011;23767;42.024;23.086;2023-05-29T13:22:14;4.07;;;1.98;;
37943;SDS011;23767;42.024;23.086;2023-05-29T13:24:40;3.83;;;1.60;;
37943;SDS011;23767;42.024;23.086;2023-05-29T13:27:06;4.43;;;1.80;;
37943;SDS011;23767;42.024;23.086;2023-05-29T13:29:32;4.43;;;1.80;;
37943;SDS011;23767;42.024;23.086;2023-05-29T13:31:58;4.50;;;1.70;;
37943;SDS011;23767;42.024;23.086;2023-05-29T13:34:24;5.43;;;1.63;;
37943;SDS011;23767;42.024;23.086;2023-05-29T13:36:54;4.05;;;1.60;;
37943;SDS011;23767;42.024;23.086;2023-05-29T13:39:20;4.68;;;2.10;;
37943;SDS011;23767;42.024;23.086;2023-05-29T13:41:46;4.63;;;2.05;;
37943;SDS011;23767;42.024;23.086;2023-05-29T13:44:12;5.85;;;2.13;;
37943;SDS011;23767;42.024;23.086;2023-05-29T13:46:38;4.13;;;2.00;;
37943;SDS011;23767;42.024;23.086;2023-05-29T13:49:04;3.10;;;1.70;;
37943;SDS011;23767;42.024;23.086;2023-05-29T13:51:32;6.07;;;1.77;;
37943;SDS011;23767;42.024;23.086;2023-05-29T13:53:59;4.68;;;1.80;;
37943;SDS011;23767;42.024;23.086;2023-05-29T13:56:25;6.22;;;2.03;;
37943;SDS011;23767;42.024;23.086;2023-05-29T13:58:52;3.75;;;1.60;;
37943;SDS011;23767;42.024;23.086;2023-05-29T14:01:18;5.05;;;2.20;;
37943;SDS011;23767;42.024;23.086;2023-05-29T14:03:45;3.40;;;1.50;;
37943;SDS011;23767;42.024;23.086;2023-05-29T14:06:11;3.30;;;1.70;;
37943;SDS011;23767;42.024;23.086;2023-05-29T14:08:37;6.00;;;2.25;;
37943;SDS011;23767;42.024;23.086;2023-05-29T14:11:03;3.00;;;1.48;;
37943;SDS011;23767;42.024;23.086;2023-05-29T14:13:29;3.80;;;1.70;;
37943;SDS011;23767;42.024;23.086;2023-05-29T14:15:55;4.55;;;1.73;;
37943;SDS011;23767;42.024;23.086;2023-05-29T14:18:22;4.32;;;1.90;;
37943;SDS011;23767;42.024;23.086;2023-05-29T14:20:48;3.85;;;1.75;;
37943;SDS011;23767;42.024;23.086;2023-05-29T14:23:16;4.45;;;1.70;;
37943;SDS011;23767;42.024;23.086;2023-05-29T14:25:42;3.20;;;1.48;;
37943;SDS011;23767;42.024;23.086;2023-05-29T14:28:08;5.43;;;1.90;;
37943;SDS011;23767;42.024;23.086;2023-05-29T14:30:35;5.40;;;1.85;;
37943;SDS011;23767;42.024;23.086;2023-05-29T14:33:01;4.97;;;1.98;;
37943;SDS011;23767;42.024;23.086;2023-05-29T14:35:27;4.95;;;1.70;;
37943;SDS011;23767;42.024;23.086;2023-05-29T14:37:53;6.97;;;1.70;;
37943;SDS011;23767;42.024;23.086;2023-05-29T14:40:19;5.18;;;1.70;;
37943;SDS011;23767;42.024;23.086;2023-05-29T14:42:45;3.53;;;1.70;;
37943;SDS011;23767;42.024;23.086;2023-05-29T14:45:11;6.95;;;1.58;;
37943;SDS011;23767;42.024;23.086;2023-05-29T14:47:39;3.55;;;1.45;;
37943;SDS011;23767;42.024;23.086;2023-05-29T14:50:05;3.97;;;1.80;;
37943;SDS011;23767;42.024;23.086;2023-05-29T14:52:31;6.38;;;1.65;;
37943;SDS011;23767;42.024;23.086;2023-05-29T14:54:57;6.68;;;1.90;;
37943;SDS011;23767;42.024;23.086;2023-05-29T14:57:23;7.30;;;1.88;;
37943;SDS011;23767;42.024;23.086;2023-05-29T14:59:49;4.00;;;1.80;;
37943;SDS011;23767;42.024;23.086;2023-05-29T15:02:15;4.72;;;1.63;;